Terminal Aerodrome Forecast
Issued by NWS

Home | Current Version | Previous Version | Text Only | Print | Product List | Glossary On
Versions: 1 2 3 4 5 6 7 8 9 10 11 12 13 14 15
684
FTUS42 KTBW 270524
TAFPGD
TAF
KPGD 270524Z 2706/2806 VRB03KT P6SM SCT035 BKN080
     FM270900 00000KT P6SM SCT070
     FM271600 23004KT P6SM BKN070
     FM271800 25007KT P6SM VCTS BKN035CB
     FM280000 25004KT P6SM SCT035 BKN100
     FM280400 VRB03KT P6SM FEW035 SCT120=

USA.gov is the U.S. government's official web portal to all federal, state and local government web resources and services.